createdAt,value
2023-05-04T00:00:01.334Z,1031.86
2023-05-04T00:10:02.309Z,1031.86
2023-05-04T00:20:01.077Z,1031.79
2023-05-04T00:30:02.033Z,1031.79
2023-05-04T00:40:03.208Z,1031.77
2023-05-04T00:50:01.133Z,1031.74
2023-05-04T01:00:03.374Z,1031.71
2023-05-04T01:10:00.412Z,1031.73
2023-05-04T01:20:02.938Z,1031.60
2023-05-04T01:30:01.611Z,1031.65
2023-05-04T01:40:01.814Z,1031.68
2023-05-04T01:50:01.719Z,1031.63
2023-05-04T02:00:01.206Z,1031.54
2023-05-04T02:10:01.361Z,1031.56
2023-05-04T02:20:00.389Z,1031.56
2023-05-04T02:30:01.762Z,1031.52
2023-05-04T02:40:01.564Z,1031.55
2023-05-04T02:50:02.185Z,1031.54
2023-05-04T03:00:01.667Z,1031.50
2023-05-04T03:20:02.428Z,1031.45
2023-05-04T03:30:02.028Z,1031.47
2023-05-04T03:40:01.489Z,1031.40
2023-05-04T03:50:00.985Z,1031.36
2023-05-04T04:00:00.984Z,1031.39
2023-05-04T04:10:01.530Z,1031.40
2023-05-04T04:20:01.052Z,1031.41
2023-05-04T04:30:02.026Z,1031.45
2023-05-04T04:40:00.999Z,1031.38
2023-05-04T04:50:01.375Z,1031.39
2023-05-04T05:00:01.249Z,1031.41
2023-05-04T05:10:01.342Z,1031.37
2023-05-04T05:20:00.400Z,1031.26
2023-05-04T05:30:01.084Z,1031.32
2023-05-04T05:40:01.260Z,1031.31
2023-05-04T05:50:03.300Z,1031.34
2023-05-04T06:00:00.404Z,1031.21
2023-05-04T06:10:01.440Z,1031.20
2023-05-04T06:20:01.242Z,1031.19
2023-05-04T06:30:01.568Z,1031.22
2023-05-04T06:40:03.573Z,1031.24
2023-05-04T06:50:00.474Z,1031.28
2023-05-04T07:00:02.021Z,1031.18
2023-05-04T07:10:01.161Z,1031.23
2023-05-04T07:20:01.956Z,1031.18
2023-05-04T07:30:01.578Z,1031.07
2023-05-04T07:40:00.993Z,1030.96
2023-05-04T07:50:01.061Z,1030.90
2023-05-04T08:00:01.708Z,1030.81
2023-05-04T08:10:01.242Z,1030.78
2023-05-04T08:20:00.929Z,1030.72
2023-05-04T08:30:01.071Z,1030.62
2023-05-04T08:40:01.158Z,1030.60
2023-05-04T09:00:00.969Z,1030.38
2023-05-04T09:10:01.108Z,1030.41
2023-05-04T09:20:01.088Z,1030.39
2023-05-04T09:30:01.165Z,1030.32
2023-05-04T09:40:01.111Z,1030.22
2023-05-04T10:00:01.002Z,1030.03
2023-05-04T10:10:01.846Z,1029.95
2023-05-04T10:20:01.189Z,1029.77
2023-05-04T10:30:00.510Z,1029.58
2023-05-04T10:40:01.063Z,1029.51
2023-05-04T10:50:01.171Z,1029.29
2023-05-04T11:00:02.552Z,1029.10
2023-05-04T11:10:01.285Z,1029.01
2023-05-04T11:20:01.161Z,1028.99
2023-05-04T11:30:00.559Z,1028.89
2023-05-04T11:40:01.031Z,1028.80
2023-05-04T11:50:01.254Z,1028.60
2023-05-04T12:00:01.248Z,1028.57
2023-05-04T12:10:01.493Z,1028.42
2023-05-04T12:20:01.554Z,1028.39
2023-05-04T12:30:01.503Z,1028.37
2023-05-04T12:40:04.389Z,1028.36
2023-05-04T12:50:01.123Z,1028.25
2023-05-04T13:00:01.034Z,1028.14
2023-05-04T13:20:01.863Z,1027.90
2023-05-04T13:30:02.562Z,1027.80
2023-05-04T13:40:01.373Z,1027.72
2023-05-04T13:50:01.301Z,1027.52
2023-05-04T14:00:07.468Z,1027.35
2023-05-04T14:10:01.561Z,1027.24
2023-05-04T14:20:01.234Z,1027.03
2023-05-04T14:30:00.456Z,1026.87
2023-05-04T14:40:01.171Z,1026.71
2023-05-04T14:50:01.380Z,1026.65
2023-05-04T15:00:01.656Z,1026.57
2023-05-04T15:10:01.480Z,1026.52
2023-05-04T15:20:01.101Z,1026.38
2023-05-04T15:30:00.440Z,1026.22
2023-05-04T15:40:02.449Z,1026.21
2023-05-04T15:50:01.234Z,1026.00
2023-05-04T16:00:01.041Z,1026.00
2023-05-04T16:10:01.143Z,1025.99
2023-05-04T16:20:01.870Z,1025.94
2023-05-04T16:30:01.168Z,1025.84
2023-05-04T16:40:01.050Z,1025.76
2023-05-04T16:50:01.077Z,1025.68
2023-05-04T17:00:01.071Z,1025.65
2023-05-04T17:10:01.037Z,1025.62
2023-05-04T17:20:01.376Z,1025.55
2023-05-04T17:30:01.135Z,1025.60
2023-05-04T17:40:01.237Z,1025.60
2023-05-04T17:50:01.106Z,1025.63
2023-05-04T18:00:01.252Z,1025.61
2023-05-04T18:10:01.095Z,1025.74
2023-05-04T18:20:01.529Z,1025.80
2023-05-04T18:30:01.091Z,1025.65
2023-05-04T18:40:01.882Z,1025.90
2023-05-04T18:50:01.075Z,1025.96
2023-05-04T19:00:01.006Z,1026.09
2023-05-04T19:10:02.603Z,1026.15
2023-05-04T19:20:01.322Z,1026.15
2023-05-04T19:30:02.388Z,1026.18
2023-05-04T19:40:01.981Z,1026.17
2023-05-04T19:50:01.070Z,1026.15
2023-05-04T20:00:01.954Z,1026.15
2023-05-04T20:10:02.906Z,1026.19
2023-05-04T20:20:01.299Z,1026.21
2023-05-04T20:30:01.049Z,1026.18
2023-05-04T20:40:01.973Z,1026.17
2023-05-04T20:50:01.305Z,1026.16
2023-05-04T21:00:02.051Z,1026.06
2023-05-04T21:10:02.477Z,1026.06
2023-05-04T21:30:00.469Z,1025.95
2023-05-04T21:40:01.320Z,1025.93
2023-05-04T21:50:01.052Z,1025.91
2023-05-04T22:00:02.669Z,1025.94
2023-05-04T22:10:01.097Z,1025.91
2023-05-04T22:20:01.672Z,1025.99
2023-05-04T22:30:01.136Z,1025.85
2023-05-04T22:40:02.211Z,1025.92
2023-05-04T22:50:01.151Z,1026.02
2023-05-04T23:00:01.172Z,1026.08
2023-05-04T23:10:02.398Z,1026.05
2023-05-04T23:20:01.952Z,1026.02
2023-05-04T23:30:02.711Z,1026.05
2023-05-04T23:40:00.386Z,1026.09
2023-05-04T23:50:01.409Z,1026.04
